sensor_id;sensor_type;location;lat;lon;timestamp;pressure;altitude;pressure_sealevel;temperature;humidity
24336;BME280;33098;52.400;16.880;2023-03-04T00:00:10;100755.16;;;2.10;99.92
24336;BME280;33098;52.400;16.880;2023-03-04T00:02:57;100755.80;;;2.17;99.93
24336;BME280;33098;52.400;16.880;2023-03-04T00:05:24;100759.40;;;2.18;99.87
24336;BME280;33098;52.400;16.880;2023-03-04T00:07:52;100755.38;;;2.13;99.91
24336;BME280;33098;52.400;16.880;2023-03-04T00:10:21;100757.65;;;2.18;99.90
24336;BME280;33098;52.400;16.880;2023-03-04T00:12:51;100753.27;;;2.19;99.82
24336;BME280;33098;52.400;16.880;2023-03-04T00:15:21;100756.72;;;2.20;99.50
24336;BME280;33098;52.400;16.880;2023-03-04T00:17:48;100756.54;;;2.25;99.55
24336;BME280;33098;52.400;16.880;2023-03-04T00:20:17;100752.25;;;2.27;99.42
24336;BME280;33098;52.400;16.880;2023-03-04T00:22:46;100753.41;;;2.28;99.51
24336;BME280;33098;52.400;16.880;2023-03-04T00:25:15;100749.84;;;2.30;99.29
24336;BME280;33098;52.400;16.880;2023-03-04T00:27:42;100746.19;;;2.29;99.43
24336;BME280;33098;52.400;16.880;2023-03-04T00:30:18;100746.27;;;2.32;99.27
24336;BME280;33098;52.400;16.880;2023-03-04T00:32:48;100741.43;;;2.35;99.11
24336;BME280;33098;52.400;16.880;2023-03-04T00:35:16;100736.56;;;2.47;99.37
24336;BME280;33098;52.400;16.880;2023-03-04T00:37:42;100737.85;;;2.50;99.17
24336;BME280;33098;52.400;16.880;2023-03-04T00:40:10;100729.00;;;2.48;98.66
24336;BME280;33098;52.400;16.880;2023-03-04T00:42:40;100728.23;;;2.50;98.86
24336;BME280;33098;52.400;16.880;2023-03-04T00:45:10;100725.50;;;2.52;98.44
24336;BME280;33098;52.400;16.880;2023-03-04T00:47:40;100726.11;;;2.55;98.23
24336;BME280;33098;52.400;16.880;2023-03-04T00:50:14;100717.96;;;2.52;97.94
24336;BME280;33098;52.400;16.880;2023-03-04T00:52:42;100716.84;;;2.54;97.94
24336;BME280;33098;52.400;16.880;2023-03-04T00:55:10;100708.73;;;2.55;97.76
24336;BME280;33098;52.400;16.880;2023-03-04T00:57:37;100705.44;;;2.59;97.86
24336;BME280;33098;52.400;16.880;2023-03-04T01:00:04;100695.77;;;2.59;97.71
24336;BME280;33098;52.400;16.880;2023-03-04T01:02:31;100698.47;;;2.54;97.28
24336;BME280;33098;52.400;16.880;2023-03-04T01:04:59;100698.02;;;2.47;97.36
24336;BME280;33098;52.400;16.880;2023-03-04T01:07:26;100690.36;;;2.41;97.26
24336;BME280;33098;52.400;16.880;2023-03-04T01:09:55;100690.54;;;2.46;97.43
24336;BME280;33098;52.400;16.880;2023-03-04T01:12:22;100682.82;;;2.50;97.33
24336;BME280;33098;52.400;16.880;2023-03-04T01:14:49;100670.34;;;2.51;97.44
24336;BME280;33098;52.400;16.880;2023-03-04T01:17:19;100665.38;;;2.53;97.20
24336;BME280;33098;52.400;16.880;2023-03-04T01:19:47;100656.98;;;2.57;96.95
24336;BME280;33098;52.400;16.880;2023-03-04T01:22:20;100650.86;;;2.56;96.93
24336;BME280;33098;52.400;16.880;2023-03-04T01:24:48;100643.21;;;2.55;96.73
24336;BME280;33098;52.400;16.880;2023-03-04T01:27:15;100638.07;;;2.52;96.36
24336;BME280;33098;52.400;16.880;2023-03-04T01:29:46;100632.13;;;2.48;96.37
24336;BME280;33098;52.400;16.880;2023-03-04T01:32:16;100633.92;;;2.42;96.00
24336;BME280;33098;52.400;16.880;2023-03-04T01:34:49;100625.23;;;2.36;95.80
24336;BME280;33098;52.400;16.880;2023-03-04T01:37:18;100616.65;;;2.36;95.98
24336;BME280;33098;52.400;16.880;2023-03-04T01:39:49;100611.94;;;2.36;95.96
24336;BME280;33098;52.400;16.880;2023-03-04T01:42:21;100604.79;;;2.35;95.69
24336;BME280;33098;52.400;16.880;2023-03-04T01:44:50;100601.05;;;2.37;95.60
24336;BME280;33098;52.400;16.880;2023-03-04T01:47:19;100598.65;;;2.35;95.57
24336;BME280;33098;52.400;16.880;2023-03-04T01:49:52;100594.94;;;2.36;95.36
24336;BME280;33098;52.400;16.880;2023-03-04T01:52:20;100586.21;;;2.35;95.37
24336;BME280;33098;52.400;16.880;2023-03-04T01:54:50;100584.07;;;2.36;95.56
24336;BME280;33098;52.400;16.880;2023-03-04T01:57:20;100579.33;;;2.37;95.28
24336;BME280;33098;52.400;16.880;2023-03-04T02:02:43;100573.55;;;2.45;95.27
24336;BME280;33098;52.400;16.880;2023-03-04T02:05:13;100571.60;;;2.45;95.13
24336;BME280;33098;52.400;16.880;2023-03-04T02:07:43;100570.87;;;2.46;94.79
24336;BME280;33098;52.400;16.880;2023-03-04T02:10:10;100570.82;;;2.39;94.40
24336;BME280;33098;52.400;16.880;2023-03-04T02:12:38;100567.86;;;2.39;94.44
24336;BME280;33098;52.400;16.880;2023-03-04T02:15:07;100566.05;;;2.36;94.22
24336;BME280;33098;52.400;16.880;2023-03-04T02:17:36;100565.55;;;2.35;94.22
24336;BME280;33098;52.400;16.880;2023-03-04T02:22:49;100556.77;;;2.40;94.21
24336;BME280;33098;52.400;16.880;2023-03-04T02:25:23;100548.54;;;2.36;93.99
24336;BME280;33098;52.400;16.880;2023-03-04T02:27:54;100535.83;;;2.34;93.99
24336;BME280;33098;52.400;16.880;2023-03-04T02:30:22;100538.58;;;2.35;93.99
24336;BME280;33098;52.400;16.880;2023-03-04T02:32:52;100537.91;;;2.35;94.05
24336;BME280;33098;52.400;16.880;2023-03-04T02:35:21;100542.35;;;2.33;93.81
24336;BME280;33098;52.400;16.880;2023-03-04T02:37:48;100543.28;;;2.36;93.90
24336;BME280;33098;52.400;16.880;2023-03-04T02:40:30;100538.36;;;2.36;93.79
24336;BME280;33098;52.400;16.880;2023-03-04T02:42:59;100540.11;;;2.37;93.80
24336;BME280;33098;52.400;16.880;2023-03-04T02:45:58;100534.50;;;2.36;93.71
24336;BME280;33098;52.400;16.880;2023-03-04T02:48:25;100534.44;;;2.42;93.62
24336;BME280;33098;52.400;16.880;2023-03-04T02:50:55;100531.33;;;2.45;93.54
24336;BME280;33098;52.400;16.880;2023-03-04T02:53:24;100529.39;;;2.45;93.45
24336;BME280;33098;52.400;16.880;2023-03-04T02:55:51;100529.32;;;2.51;93.16
24336;BME280;33098;52.400;16.880;2023-03-04T02:58:19;100532.73;;;2.53;92.95
24336;BME280;33098;52.400;16.880;2023-03-04T03:00:49;100520.23;;;2.51;92.65
24336;BME280;33098;52.400;16.880;2023-03-04T03:03:16;100521.02;;;2.48;92.57
24336;BME280;33098;52.400;16.880;2023-03-04T03:05:44;100526.86;;;2.47;92.39
24336;BME280;33098;52.400;16.880;2023-03-04T03:08:14;100520.16;;;2.44;92.31
24336;BME280;33098;52.400;16.880;2023-03-04T03:10:41;100526.29;;;2.44;92.10
24336;BME280;33098;52.400;16.880;2023-03-04T03:13:08;100528.79;;;2.39;92.24
24336;BME280;33098;52.400;16.880;2023-03-04T03:15:35;100524.49;;;2.41;92.21
24336;BME280;33098;52.400;16.880;2023-03-04T03:18:10;100526.80;;;2.44;92.41
24336;BME280;33098;52.400;16.880;2023-03-04T03:20:37;100526.48;;;2.48;92.33
24336;BME280;33098;52.400;16.880;2023-03-04T03:23:05;100528.61;;;2.51;92.19
24336;BME280;33098;52.400;16.880;2023-03-04T03:25:32;100528.92;;;2.52;92.00
24336;BME280;33098;52.400;16.880;2023-03-04T03:27:59;100528.36;;;2.49;91.86
24336;BME280;33098;52.400;16.880;2023-03-04T03:30:26;100527.67;;;2.49;91.93
24336;BME280;33098;52.400;16.880;2023-03-04T03:32:53;100523.45;;;2.53;92.11
24336;BME280;33098;52.400;16.880;2023-03-04T03:35:22;100522.31;;;2.59;92.18
24336;BME280;33098;52.400;16.880;2023-03-04T03:37:50;100527.66;;;2.69;92.15
24336;BME280;33098;52.400;16.880;2023-03-04T03:40:17;100524.69;;;2.65;91.84
24336;BME280;33098;52.400;16.880;2023-03-04T03:42:44;100528.13;;;2.66;91.76
24336;BME280;33098;52.400;16.880;2023-03-04T03:45:11;100516.73;;;2.67;91.51
24336;BME280;33098;52.400;16.880;2023-03-04T03:47:40;100520.11;;;2.65;91.37
24336;BME280;33098;52.400;16.880;2023-03-04T03:50:07;100522.77;;;2.68;91.39
24336;BME280;33098;52.400;16.880;2023-03-04T03:52:34;100520.60;;;2.70;90.72
24336;BME280;33098;52.400;16.880;2023-03-04T03:55:01;100519.85;;;2.71;90.54
24336;BME280;33098;52.400;16.880;2023-03-04T03:57:29;100509.30;;;2.72;90.53
24336;BME280;33098;52.400;16.880;2023-03-04T03:59:56;100514.55;;;2.72;90.08
24336;BME280;33098;52.400;16.880;2023-03-04T04:02:23;100520.48;;;2.65;89.87
24336;BME280;33098;52.400;16.880;2023-03-04T04:04:49;100514.39;;;2.64;89.76
24336;BME280;33098;52.400;16.880;2023-03-04T04:07:16;100517.65;;;2.73;90.22
24336;BME280;33098;52.400;16.880;2023-03-04T04:09:43;100518.73;;;2.88;90.73
24336;BME280;33098;52.400;16.880;2023-03-04T04:12:13;100522.38;;;2.93;89.74
24336;BME280;33098;52.400;16.880;2023-03-04T04:14:41;100520.20;;;2.95;89.72
24336;BME280;33098;52.400;16.880;2023-03-04T04:17:10;100519.61;;;2.92;89.19
24336;BME280;33098;52.400;16.880;2023-03-04T04:19:40;100518.13;;;2.90;88.94
24336;BME280;33098;52.400;16.880;2023-03-04T04:22:15;100520.28;;;2.93;88.77
24336;BME280;33098;52.400;16.880;2023-03-04T04:24:42;100515.02;;;2.85;88.54
24336;BME280;33098;52.400;16.880;2023-03-04T04:27:10;100513.88;;;2.91;88.90
24336;BME280;33098;52.400;16.880;2023-03-04T04:29:38;100509.20;;;2.98;89.04
24336;BME280;33098;52.400;16.880;2023-03-04T04:32:05;100512.87;;;2.94;88.69
24336;BME280;33098;52.400;16.880;2023-03-04T04:34:32;100514.41;;;2.91;88.74
24336;BME280;33098;52.400;16.880;2023-03-04T04:36:59;100511.45;;;2.90;88.75
24336;BME280;33098;52.400;16.880;2023-03-04T04:39:29;100510.18;;;2.91;88.68
24336;BME280;33098;52.400;16.880;2023-03-04T04:42:01;100501.97;;;2.98;89.00
24336;BME280;33098;52.400;16.880;2023-03-04T04:44:32;100499.46;;;3.07;88.97
24336;BME280;33098;52.400;16.880;2023-03-04T04:47:04;100506.61;;;3.08;88.55
24336;BME280;33098;52.400;16.880;2023-03-04T04:49:35;100497.55;;;2.92;87.65
24336;BME280;33098;52.400;16.880;2023-03-04T04:52:02;100504.31;;;2.82;87.53
24336;BME280;33098;52.400;16.880;2023-03-04T04:54:29;100494.64;;;2.78;87.66
24336;BME280;33098;52.400;16.880;2023-03-04T04:56:56;100492.68;;;2.79;87.90
24336;BME280;33098;52.400;16.880;2023-03-04T04:59:23;100489.45;;;2.73;87.82
24336;BME280;33098;52.400;16.880;2023-03-04T05:01:50;100479.13;;;2.69;87.86
24336;BME280;33098;52.400;16.880;2023-03-04T05:04:17;100484.19;;;2.69;88.06
24336;BME280;33098;52.400;16.880;2023-03-04T05:06:44;100475.48;;;2.68;88.13
24336;BME280;33098;52.400;16.880;2023-03-04T05:09:12;100473.18;;;2.68;88.25
24336;BME280;33098;52.400;16.880;2023-03-04T05:11:39;100473.98;;;2.70;88.40
24336;BME280;33098;52.400;16.880;2023-03-04T05:14:08;100471.29;;;2.71;88.39
24336;BME280;33098;52.400;16.880;2023-03-04T05:16:35;100465.67;;;2.71;88.61
24336;BME280;33098;52.400;16.880;2023-03-04T05:19:02;100466.15;;;2.72;88.64
24336;BME280;33098;52.400;16.880;2023-03-04T05:21:29;100465.36;;;2.71;88.73
24336;BME280;33098;52.400;16.880;2023-03-04T05:23:56;100464.28;;;2.68;88.56
24336;BME280;33098;52.400;16.880;2023-03-04T05:26:23;100456.48;;;2.66;89.05
24336;BME280;33098;52.400;16.880;2023-03-04T05:28:52;100459.20;;;2.67;89.00
24336;BME280;33098;52.400;16.880;2023-03-04T05:31:19;100453.61;;;2.59;89.15
24336;BME280;33098;52.400;16.880;2023-03-04T05:33:46;100453.51;;;2.66;89.44
24336;BME280;33098;52.400;16.880;2023-03-04T05:36:13;100450.90;;;2.69;89.47
24336;BME280;33098;52.400;16.880;2023-03-04T05:38:40;100455.66;;;2.76;89.78
24336;BME280;33098;52.400;16.880;2023-03-04T05:41:10;100455.30;;;2.76;89.48
24336;BME280;33098;52.400;16.880;2023-03-04T05:43:40;100456.30;;;2.73;89.64
24336;BME280;33098;52.400;16.880;2023-03-04T05:46:12;100461.29;;;2.75;89.67
24336;BME280;33098;52.400;16.880;2023-03-04T05:48:41;100467.92;;;2.72;89.81
24336;BME280;33098;52.400;16.880;2023-03-04T05:51:10;100457.69;;;2.73;89.90
24336;BME280;33098;52.400;16.880;2023-03-04T05:53:46;100453.09;;;2.83;89.89
24336;BME280;33098;52.400;16.880;2023-03-04T05:56:15;100456.50;;;2.88;90.17
24336;BME280;33098;52.400;16.880;2023-03-04T05:58:44;100459.58;;;2.83;89.94
24336;BME280;33098;52.400;16.880;2023-03-04T06:01:19;100461.98;;;2.75;89.84
24336;BME280;33098;52.400;16.880;2023-03-04T06:03:49;100455.48;;;2.72;90.06
24336;BME280;33098;52.400;16.880;2023-03-04T06:06:16;100454.44;;;2.76;90.51
24336;BME280;33098;52.400;16.880;2023-03-04T06:08:43;100450.16;;;2.73;90.51
24336;BME280;33098;52.400;16.880;2023-03-04T06:11:10;100448.58;;;2.70;90.67
24336;BME280;33098;52.400;16.880;2023-03-04T06:13:37;100446.38;;;2.68;90.77
24336;BME280;33098;52.400;16.880;2023-03-04T06:16:06;100446.88;;;2.68;91.18
24336;BME280;33098;52.400;16.880;2023-03-04T06:18:33;100442.02;;;2.72;91.09
24336;BME280;33098;52.400;16.880;2023-03-04T06:21:02;100443.65;;;2.70;91.35
24336;BME280;33098;52.400;16.880;2023-03-04T06:23:36;100442.27;;;2.73;91.58
24336;BME280;33098;52.400;16.880;2023-03-04T06:26:04;100446.23;;;2.75;91.42
24336;BME280;33098;52.400;16.880;2023-03-04T06:28:35;100446.09;;;2.78;91.75
24336;BME280;33098;52.400;16.880;2023-03-04T06:31:03;100452.05;;;2.78;91.69
24336;BME280;33098;52.400;16.880;2023-03-04T06:33:29;100449.33;;;2.84;91.87
24336;BME280;33098;52.400;16.880;2023-03-04T06:36:01;100449.82;;;2.92;91.88
24336;BME280;33098;52.400;16.880;2023-03-04T06:38:28;100448.39;;;2.93;91.83
24336;BME280;33098;52.400;16.880;2023-03-04T06:41:05;100444.48;;;2.98;91.87
24336;BME280;33098;52.400;16.880;2023-03-04T06:43:37;100448.05;;;3.00;91.96
24336;BME280;33098;52.400;16.880;2023-03-04T06:46:05;100451.40;;;3.03;91.86
24336;BME280;33098;52.400;16.880;2023-03-04T06:48:33;100450.48;;;3.00;91.82
24336;BME280;33098;52.400;16.880;2023-03-04T06:51:13;100448.34;;;3.02;91.75
24336;BME280;33098;52.400;16.880;2023-03-04T06:53:40;100452.88;;;3.06;92.06
24336;BME280;33098;52.400;16.880;2023-03-04T06:56:11;100450.27;;;3.05;92.13
24336;BME280;33098;52.400;16.880;2023-03-04T06:58:38;100450.69;;;3.11;92.11
24336;BME280;33098;52.400;16.880;2023-03-04T07:03:43;100442.80;;;3.16;92.28
24336;BME280;33098;52.400;16.880;2023-03-04T07:06:15;100439.59;;;3.16;92.28
24336;BME280;33098;52.400;16.880;2023-03-04T07:08:43;100430.58;;;3.21;92.44
24336;BME280;33098;52.400;16.880;2023-03-04T07:11:11;100444.48;;;3.20;92.53
24336;BME280;33098;52.400;16.880;2023-03-04T07:13:40;100438.66;;;3.17;92.45
24336;BME280;33098;52.400;16.880;2023-03-04T07:16:10;100439.08;;;3.23;92.64
24336;BME280;33098;52.400;16.880;2023-03-04T07:18:40;100435.70;;;3.24;92.67
24336;BME280;33098;52.400;16.880;2023-03-04T07:21:07;100444.42;;;3.26;92.64
24336;BME280;33098;52.400;16.880;2023-03-04T07:23:34;100442.64;;;3.30;92.78
24336;BME280;33098;52.400;16.880;2023-03-04T07:26:02;100440.27;;;3.31;92.66
24336;BME280;33098;52.400;16.880;2023-03-04T07:28:30;100438.38;;;3.34;92.68
24336;BME280;33098;52.400;16.880;2023-03-04T07:31:07;100440.23;;;3.36;92.74
24336;BME280;33098;52.400;16.880;2023-03-04T07:33:34;100438.50;;;3.32;92.80
24336;BME280;33098;52.400;16.880;2023-03-04T07:36:01;100441.40;;;3.30;92.82
24336;BME280;33098;52.400;16.880;2023-03-04T07:38:28;100440.50;;;3.30;92.98
24336;BME280;33098;52.400;16.880;2023-03-04T07:41:16;100442.50;;;3.39;93.18
24336;BME280;33098;52.400;16.880;2023-03-04T07:43:51;100436.15;;;3.40;93.08
24336;BME280;33098;52.400;16.880;2023-03-04T07:46:18;100444.16;;;3.31;93.11
24336;BME280;33098;52.400;16.880;2023-03-04T07:48:48;100436.45;;;3.16;93.40
24336;BME280;33098;52.400;16.880;2023-03-04T07:51:23;100439.96;;;3.12;93.86
24336;BME280;33098;52.400;16.880;2023-03-04T07:53:57;100440.06;;;3.14;94.29
24336;BME280;33098;52.400;16.880;2023-03-04T07:56:30;100432.31;;;3.18;94.56
24336;BME280;33098;52.400;16.880;2023-03-04T07:59:01;100432.08;;;3.27;94.68
24336;BME280;33098;52.400;16.880;2023-03-04T08:01:34;100435.16;;;3.35;94.94
24336;BME280;33098;52.400;16.880;2023-03-04T08:04:03;100437.49;;;3.34;95.06
24336;BME280;33098;52.400;16.880;2023-03-04T08:06:32;100432.08;;;3.34;94.88
24336;BME280;33098;52.400;16.880;2023-03-04T08:09:05;100430.73;;;3.43;95.27
24336;BME280;33098;52.400;16.880;2023-03-04T08:11:34;100426.57;;;3.47;95.13
24336;BME280;33098;52.400;16.880;2023-03-04T08:14:02;100424.64;;;3.46;95.20
24336;BME280;33098;52.400;16.880;2023-03-04T08:16:31;100426.98;;;3.41;95.54
24336;BME280;33098;52.400;16.880;2023-03-04T08:19:01;100427.48;;;3.46;95.94
24336;BME280;33098;52.400;16.880;2023-03-04T08:21:29;100424.06;;;3.51;95.88
24336;BME280;33098;52.400;16.880;2023-03-04T08:23:58;100429.91;;;3.60;96.08
24336;BME280;33098;52.400;16.880;2023-03-04T08:26:31;100425.65;;;3.65;95.91
24336;BME280;33098;52.400;16.880;2023-03-04T08:29:04;100421.00;;;3.70;96.16
24336;BME280;33098;52.400;16.880;2023-03-04T08:31:37;100418.02;;;3.77;96.09
24336;BME280;33098;52.400;16.880;2023-03-04T08:34:04;100422.38;;;3.81;96.06
24336;BME280;33098;52.400;16.880;2023-03-04T08:36:35;100419.31;;;3.75;96.53
24336;BME280;33098;52.400;16.880;2023-03-04T08:39:04;100418.40;;;3.69;96.61
24336;BME280;33098;52.400;16.880;2023-03-04T08:41:31;100421.09;;;3.68;96.75
24336;BME280;33098;52.400;16.880;2023-03-04T08:44:00;100416.54;;;3.68;96.93
24336;BME280;33098;52.400;16.880;2023-03-04T08:46:28;100411.34;;;3.77;97.14
24336;BME280;33098;52.400;16.880;2023-03-04T08:48:55;100409.67;;;3.93;97.42
24336;BME280;33098;52.400;16.880;2023-03-04T08:51:25;100414.55;;;4.04;97.52
24336;BME280;33098;52.400;16.880;2023-03-04T08:53:52;100409.60;;;4.01;97.37
24336;BME280;33098;52.400;16.880;2023-03-04T08:56:19;100409.75;;;3.94;97.77
24336;BME280;33098;52.400;16.880;2023-03-04T08:58:55;100410.74;;;3.92;97.97
24336;BME280;33098;52.400;16.880;2023-03-04T09:01:22;100411.63;;;3.89;98.55
24336;BME280;33098;52.400;16.880;2023-03-04T09:03:54;100411.94;;;3.83;99.00
24336;BME280;33098;52.400;16.880;2023-03-04T09:06:21;100409.67;;;3.76;99.99
24336;BME280;33098;52.400;16.880;2023-03-04T09:08:50;100411.92;;;3.69;100.00
24336;BME280;33098;52.400;16.880;2023-03-04T09:11:17;100412.30;;;3.68;100.00
24336;BME280;33098;52.400;16.880;2023-03-04T09:13:47;100412.91;;;3.70;100.00
24336;BME280;33098;52.400;16.880;2023-03-04T09:16:15;100412.19;;;3.74;100.00
24336;BME280;33098;52.400;16.880;2023-03-04T09:18:45;100416.15;;;3.72;100.00
24336;BME280;33098;52.400;16.880;2023-03-04T09:21:14;100415.71;;;3.67;100.00
24336;BME280;33098;52.400;16.880;2023-03-04T09:23:41;100409.63;;;3.69;100.00
24336;BME280;33098;52.400;16.880;2023-03-04T09:26:23;100408.42;;;3.79;100.00
24336;BME280;33098;52.400;16.880;2023-03-04T09:28:56;100407.05;;;3.89;100.00
24336;BME280;33098;52.400;16.880;2023-03-04T09:31:34;100406.73;;;3.99;100.00
24336;BME280;33098;52.400;16.880;2023-03-04T09:34:02;100405.92;;;4.15;100.00
24336;BME280;33098;52.400;16.880;2023-03-04T09:36:29;100405.06;;;4.21;100.00
24336;BME280;33098;52.400;16.880;2023-03-04T09:39:05;100403.56;;;4.23;100.00
24336;BME280;33098;52.400;16.880;2023-03-04T09:44:07;100393.05;;;4.42;100.00
24336;BME280;33098;52.400;16.880;2023-03-04T09:46:38;100393.82;;;4.51;100.00
24336;BME280;33098;52.400;16.880;2023-03-04T09:49:11;100395.95;;;4.53;100.00
24336;BME280;33098;52.400;16.880;2023-03-04T09:55:39;100389.86;;;4.49;100.00
24336;BME280;33098;52.400;16.880;2023-03-04T09:57:46;100394.73;;;4.56;100.00
24336;BME280;33098;52.400;16.880;2023-03-04T10:00:19;100389.84;;;4.62;100.00
24336;BME280;33098;52.400;16.880;2023-03-04T10:05:31;100383.40;;;4.74;100.00
24336;BME280;33098;52.400;16.880;2023-03-04T10:08:13;100379.56;;;4.80;100.00
24336;BME280;33098;52.400;16.880;2023-03-04T10:10:43;100386.10;;;4.92;100.00
24336;BME280;33098;52.400;16.880;2023-03-04T10:13:20;100386.58;;;4.93;100.00
24336;BME280;33098;52.400;16.880;2023-03-04T10:15:50;100385.45;;;4.91;100.00
24336;BME280;33098;52.400;16.880;2023-03-04T10:18:23;100385.52;;;4.96;100.00
24336;BME280;33098;52.400;16.880;2023-03-04T10:21:10;100377.25;;;4.99;100.00
24336;BME280;33098;52.400;16.880;2023-03-04T10:23:42;100375.55;;;5.11;100.00
24336;BME280;33098;52.400;16.880;2023-03-04T10:26:22;100375.02;;;5.23;100.00
24336;BME280;33098;52.400;16.880;2023-03-04T10:29:02;100371.84;;;5.23;100.00
24336;BME280;33098;52.400;16.880;2023-03-04T10:31:39;100370.44;;;5.26;100.00
24336;BME280;33098;52.400;16.880;2023-03-04T10:34:14;100369.40;;;5.29;100.00
24336;BME280;33098;52.400;16.880;2023-03-04T10:37:01;100362.35;;;5.32;100.00
24336;BME280;33098;52.400;16.880;2023-03-04T10:39:33;100362.58;;;5.50;100.00
24336;BME280;33098;52.400;16.880;2023-03-04T10:47:27;100358.62;;;5.54;98.13
24336;BME280;33098;52.400;16.880;2023-03-04T10:49:59;100358.50;;;5.56;97.52
24336;BME280;33098;52.400;16.880;2023-03-04T10:52:34;100355.08;;;5.55;96.33
24336;BME280;33098;52.400;16.880;2023-03-04T10:55:13;100351.52;;;5.56;96.04
24336;BME280;33098;52.400;16.880;2023-03-04T10:57:44;100348.29;;;5.62;95.85
24336;BME280;33098;52.400;16.880;2023-03-04T11:02:49;100343.14;;;5.75;95.39
24336;BME280;33098;52.400;16.880;2023-03-04T11:05:20;100338.26;;;5.86;94.91
24336;BME280;33098;52.400;16.880;2023-03-04T11:07:58;100336.77;;;5.99;95.31
24336;BME280;33098;52.400;16.880;2023-03-04T11:10:48;100331.27;;;6.17;95.13
24336;BME280;33098;52.400;16.880;2023-03-04T11:13:24;100332.81;;;6.32;94.33
24336;BME280;33098;52.400;16.880;2023-03-04T11:16:04;100330.05;;;6.43;93.58
24336;BME280;33098;52.400;16.880;2023-03-04T11:18:50;100343.96;;;6.51;91.44
24336;BME280;33098;52.400;16.880;2023-03-04T11:21:22;100337.67;;;6.36;89.10
24336;BME280;33098;52.400;16.880;2023-03-04T11:24:26;100342.09;;;6.38;89.84
24336;BME280;33098;52.400;16.880;2023-03-04T11:27:09;100343.27;;;6.51;89.62
24336;BME280;33098;52.400;16.880;2023-03-04T11:29:44;100344.95;;;6.50;88.63
24336;BME280;33098;52.400;16.880;2023-03-04T11:32:20;100346.45;;;6.59;88.71
24336;BME280;33098;52.400;16.880;2023-03-04T11:35:00;100348.03;;;6.65;88.60
24336;BME280;33098;52.400;16.880;2023-03-04T11:37:46;100356.00;;;6.59;86.43
24336;BME280;33098;52.400;16.880;2023-03-04T11:40:37;100334.65;;;6.45;86.29
24336;BME280;33098;52.400;16.880;2023-03-04T11:50:57;100341.89;;;6.62;85.04
24336;BME280;33098;52.400;16.880;2023-03-04T11:53:38;100337.57;;;6.71;84.45
24336;BME280;33098;52.400;16.880;2023-03-04T11:58:57;100328.48;;;6.97;85.46
24336;BME280;33098;52.400;16.880;2023-03-04T12:01:56;100329.60;;;7.04;84.06
24336;BME280;33098;52.400;16.880;2023-03-04T12:10:35;100316.66;;;7.45;84.18
24336;BME280;33098;52.400;16.880;2023-03-04T12:24:28;100309.09;;;7.92;78.49
24336;BME280;33098;52.400;16.880;2023-03-04T12:38:48;100322.73;;;7.63;75.23
24336;BME280;33098;52.400;16.880;2023-03-04T12:44:15;100321.31;;;7.10;75.21
24336;BME280;33098;52.400;16.880;2023-03-04T12:47:20;100321.30;;;7.05;76.04
24336;BME280;33098;52.400;16.880;2023-03-04T12:50:17;100317.39;;;7.11;77.04
24336;BME280;33098;52.400;16.880;2023-03-04T12:53:05;100320.63;;;7.15;77.19
24336;BME280;33098;52.400;16.880;2023-03-04T12:55:42;100322.90;;;7.15;77.63
24336;BME280;33098;52.400;16.880;2023-03-04T12:58:20;100323.79;;;7.10;77.24
24336;BME280;33098;52.400;16.880;2023-03-04T13:01:08;100330.98;;;7.08;77.47
24336;BME280;33098;52.400;16.880;2023-03-04T13:04:01;100336.31;;;6.91;76.48
24336;BME280;33098;52.400;16.880;2023-03-04T13:09:31;100362.19;;;6.92;77.80
24336;BME280;33098;52.400;16.880;2023-03-04T13:12:19;100371.17;;;6.87;77.94
24336;BME280;33098;52.400;16.880;2023-03-04T13:20:40;100379.92;;;6.51;79.44
24336;BME280;33098;52.400;16.880;2023-03-04T13:25:47;100377.52;;;6.36;80.05
24336;BME280;33098;52.400;16.880;2023-03-04T13:28:27;100380.56;;;6.35;80.47
24336;BME280;33098;52.400;16.880;2023-03-04T13:56:45;100396.73;;;6.30;82.04
24336;BME280;33098;52.400;16.880;2023-03-04T13:59:21;100396.23;;;6.30;82.01
24336;BME280;33098;52.400;16.880;2023-03-04T14:02:10;100398.84;;;6.27;81.96
24336;BME280;33098;52.400;16.880;2023-03-04T14:04:44;100394.95;;;6.28;82.06
24336;BME280;33098;52.400;16.880;2023-03-04T14:07:34;100390.98;;;6.29;82.17
24336;BME280;33098;52.400;16.880;2023-03-04T14:12:59;100393.19;;;6.33;82.17
24336;BME280;33098;52.400;16.880;2023-03-04T14:15:28;100386.75;;;6.44;82.46
24336;BME280;33098;52.400;16.880;2023-03-04T14:18:01;100390.39;;;6.56;82.34
24336;BME280;33098;52.400;16.880;2023-03-04T14:20:39;100390.30;;;6.63;82.10
24336;BME280;33098;52.400;16.880;2023-03-04T14:23:32;100393.40;;;6.61;81.35
24336;BME280;33098;52.400;16.880;2023-03-04T14:26:10;100400.85;;;6.63;81.16
24336;BME280;33098;52.400;16.880;2023-03-04T14:28:49;100398.50;;;6.62;80.76
24336;BME280;33098;52.400;16.880;2023-03-04T14:31:25;100397.80;;;6.56;80.13
24336;BME280;33098;52.400;16.880;2023-03-04T14:33:57;100396.04;;;6.47;79.74
24336;BME280;33098;52.400;16.880;2023-03-04T14:36:33;100403.23;;;6.40;79.31
24336;BME280;33098;52.400;16.880;2023-03-04T14:39:05;100399.23;;;6.30;78.48
24336;BME280;33098;52.400;16.880;2023-03-04T14:41:41;100398.41;;;6.26;78.50
24336;BME280;33098;52.400;16.880;2023-03-04T14:44:34;100403.73;;;6.28;78.52
24336;BME280;33098;52.400;16.880;2023-03-04T14:47:23;100399.65;;;6.28;78.34
24336;BME280;33098;52.400;16.880;2023-03-04T14:49:51;100402.97;;;6.23;77.59
24336;BME280;33098;52.400;16.880;2023-03-04T14:52:33;100403.75;;;6.13;77.21
24336;BME280;33098;52.400;16.880;2023-03-04T14:55:22;100400.48;;;6.09;77.08
24336;BME280;33098;52.400;16.880;2023-03-04T14:58:15;100393.39;;;6.10;77.45